Time;durP1;ratioP1;P1;durP2;ratioP2;P2;SDS_P1;SDS_P2;PMS_P1;PMS_P2;Temp;Humidity;BMP_temperature;BMP_pressure;BME280_temperature;BME280_humidity;BME280_pressure;Samples;Min_cycle;Max_cycle;Signal;HPM_P1;HPM_P2
2023/04/21 04:28:36;;;;;;;;;4.50;4.50;;;;;18.13;41.28;100677.00;5136172;27;45575;-74
2023/04/21 04:31:03;;;;;;;;;6.75;4.25;;;;;18.86;42.45;100700.19;5131288;27;45557;-74
2023/04/21 04:33:29;;;;;;;;;4.50;4.50;;;;;19.74;42.68;100706.59;5129564;27;45528;-73
2023/04/21 04:35:54;;;;;;;;;4.00;4.00;;;;;20.57;41.98;100691.63;5131008;27;45459;-76
2023/04/21 04:38:21;;;;;;;;;4.75;4.75;;;;;21.50;42.21;100699.69;5129748;27;46051;-74
2023/04/21 04:40:53;;;;;;;;;4.00;4.00;;;;;22.33;41.69;100703.81;5131373;27;45476;-75
2023/04/21 04:43:18;;;;;;;;;2.25;2.25;;;;;22.99;40.98;100700.50;5123290;27;45705;-74
2023/04/21 04:45:44;;;;;;;;;5.00;5.00;;;;;23.52;40.63;100702.09;5129201;27;51848;-75
2023/04/21 04:48:09;;;;;;;;;4.00;4.00;;;;;24.02;40.04;100713.75;5130966;27;45403;-77
2023/04/21 04:50:35;;;;;;;;;5.00;3.67;;;;;24.42;39.74;100708.41;5114019;27;45673;-69
2023/04/21 04:53:00;;;;;;;;;3.75;3.75;;;;;24.79;39.14;100708.75;5117010;27;46043;-71
2023/04/21 04:55:29;;;;;;;;;3.00;3.00;;;;;25.10;39.26;100707.06;5112501;27;45755;-71
2023/04/21 04:57:54;;;;;;;;;4.00;4.00;;;;;25.37;38.37;100711.09;5117226;27;46267;-72
2023/04/21 05:00:20;;;;;;;;;4.00;4.00;;;;;25.58;38.41;100701.44;5113276;27;45363;-73
2023/04/21 05:02:45;;;;;;;;;4.00;3.00;;;;;25.81;38.20;100711.44;5115566;27;45527;-73
2023/04/21 05:05:10;;;;;;;;;4.67;3.67;;;;;25.99;37.57;100712.97;5117588;27;45816;-73
2023/04/21 05:07:36;;;;;;;;;4.00;4.00;;;;;26.19;37.78;100710.53;5117630;27;49870;-73
2023/04/21 05:10:03;;;;;;;;;6.67;5.00;;;;;26.36;37.14;100710.38;5114108;27;47224;-72
2023/04/21 05:12:29;;;;;;;;;3.67;3.67;;;;;26.50;37.24;100703.22;5114515;27;46562;-74
2023/04/21 05:14:55;;;;;;;;;4.67;3.33;;;;;26.63;37.21;100714.28;5130264;27;45385;-70
2023/04/21 05:17:20;;;;;;;;;4.00;4.00;;;;;26.76;36.46;100716.31;5127872;27;45764;-72
2023/04/21 05:19:45;;;;;;;;;4.00;4.00;;;;;26.89;36.35;100712.91;5108083;27;50882;-71
2023/04/21 05:22:10;;;;;;;;;5.00;4.33;;;;;27.01;36.50;100709.72;5118083;27;53646;-68
2023/04/21 05:24:37;;;;;;;;;3.00;3.00;;;;;26.99;35.77;100701.75;5117157;27;47399;-70
2023/04/21 05:27:02;;;;;;;;;6.00;4.67;;;;;27.14;35.86;100709.84;5114595;27;47264;-71
2023/04/21 05:29:28;;;;;;;;;4.33;4.33;;;;;27.15;35.40;100705.25;5109649;27;45704;-72
2023/04/21 05:31:54;;;;;;;;;3.67;3.67;;;;;27.15;35.33;100697.09;5128330;27;45423;-72
2023/04/21 05:34:19;;;;;;;;;4.00;4.00;;;;;26.98;35.08;100669.25;5129832;27;45520;-71
2023/04/21 05:36:44;;;;;;;;;3.00;3.00;;;;;26.91;35.16;100669.16;5122776;27;45548;-71
2023/04/21 05:39:10;;;;;;;;;5.00;5.00;;;;;26.92;35.43;100658.06;5101392;27;45550;-72
2023/04/21 05:41:35;;;;;;;;;1.00;1.00;;;;;26.97;34.75;100660.22;5114124;27;45394;-71
2023/04/21 05:44:00;;;;;;;;;5.00;5.00;;;;;27.05;35.19;100664.75;5105035;27;45431;-71
2023/04/21 05:46:26;;;;;;;;;7.00;6.00;;;;;27.13;34.66;100666.47;5102447;27;45510;-71
2023/04/21 05:48:51;;;;;;;;;4.00;4.00;;;;;27.12;35.05;100656.59;5111184;27;45536;-72
2023/04/21 05:51:16;;;;;;;;;5.00;5.00;;;;;27.25;34.12;100666.81;5101434;27;45315;-72
2023/04/21 05:53:44;;;;;;;;;3.33;3.33;;;;;27.55;34.65;100705.63;5095682;27;45309;-71
2023/04/21 05:56:10;;;;;;;;;5.00;3.00;;;;;27.60;33.96;100708.66;5101859;27;45575;-72
2023/04/21 05:58:35;;;;;;;;;4.33;4.33;;;;;27.64;33.88;100709.09;5086158;27;45623;-71
2023/04/21 06:01:01;;;;;;;;;4.00;4.00;;;;;27.67;33.58;100705.94;5109740;27;45439;-72
2023/04/21 06:03:30;;;;;;;;;4.00;4.00;;;;;27.69;34.18;100711.22;5115440;27;45398;-71
2023/04/21 06:05:56;;;;;;;;;6.33;6.33;;;;;27.71;33.51;100701.78;5102177;27;46985;-71
2023/04/21 06:08:22;;;;;;;;;10.00;8.00;;;;;27.71;33.81;100709.97;5114459;27;45472;-72
2023/04/21 06:10:48;;;;;;;;;7.67;6.67;;;;;27.68;33.66;100710.38;5114804;27;45392;-72
2023/04/21 06:13:13;;;;;;;;;9.00;6.00;;;;;27.65;33.11;100720.81;5112128;27;45700;-72
2023/04/21 06:15:39;;;;;;;;;6.67;6.00;;;;;27.58;33.01;100705.22;5093408;27;46229;-72
2023/04/21 06:18:04;;;;;;;;;6.67;6.67;;;;;27.56;33.38;100706.47;5099193;27;45898;-72
2023/04/21 06:20:29;;;;;;;;;10.33;8.67;;;;;27.52;33.37;100707.91;5114023;27;45585;-73
2023/04/21 06:22:55;;;;;;;;;10.00;10.00;;;;;27.46;32.86;100706.81;5110049;27;45550;-73
2023/04/21 06:25:20;;;;;;;;;11.00;8.33;;;;;27.46;33.49;100710.38;5104861;27;45923;-73
2023/04/21 06:27:46;;;;;;;;;8.67;7.00;;;;;27.45;33.31;100710.56;5105427;27;45385;-73
2023/04/21 06:30:12;;;;;;;;;7.33;7.33;;;;;27.44;32.67;100711.59;5112458;27;45671;-73
2023/04/21 06:32:37;;;;;;;;;9.00;7.00;;;;;27.42;32.36;100705.53;5089078;27;45704;-73
2023/04/21 06:35:03;;;;;;;;;7.00;7.00;;;;;27.43;32.87;100702.56;5111199;27;46097;-73
2023/04/21 06:37:28;;;;;;;;;4.67;4.00;;;;;27.43;33.20;100704.47;5115009;27;45490;-72
2023/04/21 06:39:54;;;;;;;;;5.33;5.00;;;;;27.42;33.01;100706.34;5107023;27;45658;-72
2023/04/21 06:42:19;;;;;;;;;9.33;5.33;;;;;27.42;32.52;100703.63;5114786;27;45596;-72
2023/04/21 06:44:44;;;;;;;;;5.67;5.33;;;;;27.40;32.76;100697.53;5114475;27;45920;-72
2023/04/21 06:47:10;;;;;;;;;5.00;5.00;;;;;27.41;32.92;100699.22;5094137;27;45511;-72
2023/04/21 06:49:36;;;;;;;;;7.00;5.00;;;;;27.41;32.36;100707.41;5092091;27;45910;-72
2023/04/21 06:52:02;;;;;;;;;5.33;5.33;;;;;27.41;32.87;100707.41;5108541;27;45403;-73
2023/04/21 06:54:27;;;;;;;;;7.00;7.00;;;;;27.39;32.57;100705.91;5108518;27;46111;-72
2023/04/21 06:56:52;;;;;;;;;5.00;4.33;;;;;27.40;32.87;100705.72;5101855;27;45375;-72
2023/04/21 06:59:18;;;;;;;;;5.33;5.33;;;;;27.41;32.22;100695.63;5100108;27;45491;-71
2023/04/21 07:01:43;;;;;;;;;7.00;6.67;;;;;27.39;32.27;100698.59;5099749;27;45414;-71
2023/04/21 07:04:08;;;;;;;;;5.33;5.00;;;;;27.42;32.68;100698.16;5114174;27;46684;-72
2023/04/21 07:06:34;;;;;;;;;5.33;4.00;;;;;27.39;32.17;100693.13;5113662;27;56618;-73
2023/04/21 07:08:59;;;;;;;;;5.67;3.67;;;;;27.42;32.62;100697.34;5114174;27;45374;-73
2023/04/21 07:11:27;;;;;;;;;4.33;4.00;;;;;27.42;31.78;100700.06;5115122;27;45467;-72
2023/04/21 07:13:52;;;;;;;;;5.00;4.33;;;;;27.43;32.05;100690.84;5106841;27;46216;-73
2023/04/21 07:16:18;;;;;;;;;5.33;5.33;;;;;27.44;31.52;100697.97;5103197;27;45497;-73
2023/04/21 07:18:43;;;;;;;;;6.00;6.00;;;;;27.42;32.34;100695.44;5106623;27;48493;-72
2023/04/21 07:21:08;;;;;;;;;9.33;5.33;;;;;27.42;31.75;100691.91;5101222;27;45420;-72
2023/04/21 07:23:34;;;;;;;;;5.00;5.00;;;;;27.41;32.06;100693.75;5104005;27;45826;-72
2023/04/21 07:25:59;;;;;;;;;5.67;4.00;;;;;27.36;31.74;100680.75;5099608;27;45615;-73
2023/04/21 07:28:25;;;;;;;;;7.67;6.00;;;;;27.36;31.47;100683.47;5107619;27;45569;-75
2023/04/21 07:30:50;;;;;;;;;8.00;8.00;;;;;27.38;32.20;100683.25;5102297;27;47075;-76
2023/04/21 07:33:16;;;;;;;;;7.33;7.00;;;;;27.38;32.11;100675.06;5114160;27;45688;-75
2023/04/21 07:35:41;;;;;;;;;5.33;5.33;;;;;27.37;31.63;100673.38;5111606;27;45991;-76
2023/04/21 07:38:06;;;;;;;;;8.33;7.00;;;;;27.40;31.96;100672.16;5112209;27;45389;-75
2023/04/21 07:40:32;;;;;;;;;5.67;5.00;;;;;27.40;32.05;100673.00;5114089;27;45936;-75
2023/04/21 07:42:57;;;;;;;;;7.67;7.67;;;;;27.42;31.95;100673.66;5103438;27;46202;-75
2023/04/21 07:45:23;;;;;;;;;5.33;5.33;;;;;27.48;31.52;100672.88;5111863;27;45510;-76
2023/04/21 07:47:49;;;;;;;;;5.33;5.33;;;;;27.51;31.49;100665.34;5088097;27;45422;-76
2023/04/21 07:50:14;;;;;;;;;8.00;6.67;;;;;27.52;31.82;100675.19;5111505;27;45713;-74
2023/04/21 07:52:39;;;;;;;;;7.00;7.00;;;;;27.48;32.09;100661.13;5106528;27;50159;-75
2023/04/21 07:55:05;;;;;;;;;4.67;4.67;;;;;27.51;31.88;100676.25;5101322;27;45304;-76
2023/04/21 07:57:32;;;;;;;;;6.00;6.00;;;;;27.49;31.25;100677.28;5101224;27;45537;-74
2023/04/21 07:59:58;;;;;;;;;5.33;4.67;;;;;27.48;31.19;100669.28;5111710;27;45742;-73
2023/04/21 08:02:23;;;;;;;;;6.33;6.33;;;;;27.46;31.06;100676.84;5102807;27;46225;-73
2023/04/21 08:04:48;;;;;;;;;5.33;5.00;;;;;27.44;31.87;100671.59;5096881;27;45593;-74
2023/04/21 08:07:14;;;;;;;;;4.00;4.00;;;;;27.43;31.74;100671.78;5097156;27;51545;-72
2023/04/21 08:09:39;;;;;;;;;5.00;5.00;;;;;27.41;31.41;100677.41;5097097;27;45520;-72
2023/04/21 08:12:05;;;;;;;;;4.33;4.33;;;;;27.41;31.61;100674.69;5096697;27;45515;-73
2023/04/21 08:14:31;;;;;;;;;3.67;3.67;;;;;27.41;31.52;100674.69;5091824;27;45425;-73
2023/04/21 08:16:57;;;;;;;;;6.00;6.00;;;;;27.40;31.67;100666.69;5093682;27;45635;-72
2023/04/21 08:19:23;;;;;;;;;4.33;4.33;;;;;27.40;30.98;100673.00;5097310;27;45466;-72
2023/04/21 08:21:48;;;;;;;;;7.67;6.00;;;;;27.39;31.00;100673.19;5098006;27;46219;-72
2023/04/21 08:24:14;;;;;;;;;5.67;4.00;;;;;27.36;31.20;100667.13;5101147;27;45407;-73
2023/04/21 08:26:39;;;;;;;;;4.00;4.00;;;;;27.38;31.19;100669.63;5109860;27;45420;-72
2023/04/21 08:29:06;;;;;;;;;5.00;5.00;;;;;27.33;31.03;100661.19;5099927;27;45319;-72
2023/04/21 08:31:31;;;;;;;;;5.33;5.33;;;;;27.38;30.93;100672.34;5104258;27;45760;-72
2023/04/21 08:33:56;;;;;;;;;3.00;3.00;;;;;27.38;30.82;100669.63;5097309;27;45585;-72
2023/04/21 08:36:22;;;;;;;;;4.33;4.00;;;;;27.37;31.42;100667.94;5108245;27;51855;-74
2023/04/21 08:38:47;;;;;;;;;4.33;4.33;;;;;27.38;31.39;100666.06;5108516;27;45760;-72
2023/04/21 08:41:12;;;;;;;;;5.67;3.67;;;;;27.34;30.97;100671.91;5099024;27;46318;-73
2023/04/21 08:43:38;;;;;;;;;3.33;3.33;;;;;27.33;30.94;100658.47;5096590;27;45677;-72
2023/04/21 08:46:08;;;;;;;;;3.00;3.00;;;;;27.39;31.62;100662.31;5096264;27;45690;-72
2023/04/21 08:48:37;;;;;;;;;4.67;3.33;;;;;27.42;31.26;100661.91;5097996;27;45613;-72
2023/04/21 08:51:05;;;;;;;;;4.00;4.00;;;;;27.42;31.25;100673.66;5095713;27;45911;-74
2023/04/21 08:53:30;;;;;;;;;5.00;5.00;;;;;27.43;30.69;100674.50;5107764;27;45505;-74
2023/04/21 08:55:56;;;;;;;;;5.00;5.00;;;;;27.49;30.77;100669.09;5096934;27;45767;-71
2023/04/21 08:58:22;;;;;;;;;4.33;4.33;;;;;27.57;30.90;100670.84;5101082;27;45635;-72
2023/04/21 09:00:48;;;;;;;;;7.00;6.00;;;;;27.60;31.30;100666.91;5105919;27;45344;-72
2023/04/21 09:03:21;;;;;;;;;6.00;6.00;;;;;27.60;30.89;100667.75;5111978;27;45339;-72
2023/04/21 09:05:59;;;;;;;;;6.33;5.67;;;;;27.58;30.60;100677.13;5107051;27;45544;-71
2023/04/21 09:08:26;;;;;;;;;5.00;5.00;;;;;27.54;31.21;100668.50;5112546;27;45477;-72
2023/04/21 09:10:52;;;;;;;;;7.00;6.33;;;;;27.51;31.31;100674.38;5108835;27;46045;-73
2023/04/21 09:13:19;;;;;;;;;5.33;5.33;;;;;27.49;30.71;100671.84;5102028;27;50236;-73
2023/04/21 09:15:47;;;;;;;;;6.00;6.00;;;;;27.46;31.28;100655.88;5112842;27;45538;-72
2023/04/21 09:18:16;;;;;;;;;7.67;7.67;;;;;27.59;31.34;100666.03;5087201;27;45445;-71
2023/04/21 09:20:43;;;;;;;;;7.33;7.00;;;;;27.61;30.64;100666.72;5114912;27;46129;-72
2023/04/21 09:23:09;;;;;;;;;9.33;8.33;;;;;27.62;30.34;100673.00;5109420;27;45582;-72
2023/04/21 09:25:38;;;;;;;;;9.33;9.00;;;;;27.58;30.49;100677.13;5106248;27;45704;-72
2023/04/21 09:28:08;;;;;;;;;6.67;6.67;;;;;27.54;31.08;100678.56;5100323;27;45499;-72
2023/04/21 09:30:35;;;;;;;;;4.67;4.67;;;;;27.49;30.89;100674.56;5114170;27;45928;-72
2023/04/21 09:33:00;;;;;;;;;7.00;7.00;;;;;27.47;30.78;100670.34;5107816;27;45508;-72
2023/04/21 09:35:32;;;;;;;;;7.00;6.67;;;;;27.47;31.01;100667.63;5116549;27;45348;-72
2023/04/21 09:37:59;;;;;;;;;7.67;7.00;;;;;27.49;30.63;100673.69;5115280;27;45567;-72
2023/04/21 09:40:24;;;;;;;;;6.67;6.33;;;;;27.46;30.86;100660.50;5110751;27;46065;-72
2023/04/21 09:42:50;;;;;;;;;7.00;7.00;;;;;27.51;30.89;100670.78;5089222;27;45356;-72
2023/04/21 09:45:16;;;;;;;;;6.33;6.00;;;;;27.47;30.84;100659.44;5104900;27;45509;-71
2023/04/21 09:47:42;;;;;;;;;7.67;5.67;;;;;27.47;30.38;100664.91;5106620;27;45511;-72
2023/04/21 09:50:10;;;;;;;;;4.33;4.33;;;;;27.51;30.66;100662.59;5113279;27;46090;-72
2023/04/21 09:52:38;;;;;;;;;9.00;7.00;;;;;27.48;30.94;100661.13;5115772;27;45490;-72
2023/04/21 09:55:12;;;;;;;;;7.67;7.67;;;;;27.46;30.78;100663.22;5109980;27;45425;-72
2023/04/21 09:57:40;;;;;;;;;7.00;7.00;;;;;27.44;30.32;100657.09;5114407;27;45523;-71
2023/04/21 10:00:08;;;;;;;;;8.00;8.00;;;;;27.44;30.55;100662.56;5103354;27;46127;-71
2023/04/21 10:02:36;;;;;;;;;10.00;10.00;;;;;27.41;30.45;100654.75;5101694;27;45470;-72
2023/04/21 10:05:05;;;;;;;;;8.00;8.00;;;;;27.40;30.27;100659.38;5106859;27;45516;-72
2023/04/21 10:07:30;;;;;;;;;8.33;8.33;;;;;27.39;30.39;100651.41;5103895;27;45542;-72
2023/04/21 10:09:58;;;;;;;;;10.00;10.00;;;;;27.35;30.95;100648.22;5114676;27;45985;-72
2023/04/21 10:12:25;;;;;;;;;6.67;6.67;;;;;27.35;30.25;100649.06;5114556;27;45671;-72
2023/04/21 10:14:52;;;;;;;;;6.33;6.33;;;;;27.34;30.19;100646.56;5097277;27;45429;-72
2023/04/21 10:17:22;;;;;;;;;9.67;7.33;;;;;27.32;30.68;100646.75;5100128;27;45511;-71
2023/04/21 10:19:49;;;;;;;;;8.67;6.00;;;;;27.31;30.64;100639.63;5103251;27;46341;-71
2023/04/21 10:22:26;;;;;;;;;4.33;4.33;;;;;27.30;30.32;100646.09;5103179;27;45672;-72
2023/04/21 10:24:55;;;;;;;;;7.00;6.00;;;;;27.29;30.29;100654.44;5098485;27;45824;-71
2023/04/21 10:27:49;;;;;;;;;8.33;7.00;;;;;27.27;30.17;100641.03;5113412;27;45874;-71
2023/04/21 10:30:19;;;;;;;;;5.67;5.00;;;;;27.22;30.57;100636.16;5091057;27;45630;-71
2023/04/21 10:32:45;;;;;;;;;6.00;6.00;;;;;27.24;31.01;100633.25;5103528;27;45418;-71
2023/04/21 10:35:20;;;;;;;;;5.67;4.33;;;;;27.23;30.31;100632.41;5113258;27;45573;-72
2023/04/21 10:37:47;;;;;;;;;6.67;6.67;;;;;27.25;30.10;100636.84;5114876;27;45468;-72
2023/04/21 10:40:32;;;;;;;;;1.00;0.00;;;;;27.24;30.11;100633.25;5106764;27;45834;-71
2023/04/21 10:42:57;;;;;;;;;6.33;6.33;;;;;27.24;30.77;100627.81;5106685;27;45487;-72
2023/04/21 10:45:26;;;;;;;;;5.00;5.00;;;;;27.22;30.67;100624.44;5114387;27;45432;-72
2023/04/21 10:47:52;;;;;;;;;4.33;4.33;;;;;27.23;30.35;100624.22;5109075;27;46231;-71
2023/04/21 10:50:26;;;;;;;;;5.00;3.67;;;;;27.24;30.22;100625.09;5113264;27;45655;-71
2023/04/21 10:52:55;;;;;;;;;7.33;5.67;;;;;27.25;30.73;100620.47;5113494;27;45444;-71
2023/04/21 10:55:21;;;;;;;;;7.00;5.00;;;;;27.23;30.70;100618.78;5114955;27;45487;-72
2023/04/21 10:57:47;;;;;;;;;6.00;6.00;;;;;27.26;30.14;100620.25;5113013;27;45390;-72
2023/04/21 11:00:18;;;;;;;;;4.00;4.00;;;;;27.25;30.63;100613.13;5112027;27;46319;-71
2023/04/21 11:02:52;;;;;;;;;5.00;5.00;;;;;27.20;30.38;100605.56;5112821;27;45628;-71
2023/04/21 11:05:18;;;;;;;;;5.33;5.33;;;;;27.26;30.00;100608.53;5108432;27;45490;-72
2023/04/21 11:07:43;;;;;;;;;5.00;5.00;;;;;27.27;30.62;100602.03;5112082;27;45336;-72
2023/04/21 11:10:10;;;;;;;;;6.67;5.00;;;;;27.27;30.37;100592.00;5103623;27;52669;-72
2023/04/21 11:12:39;;;;;;;;;4.00;4.00;;;;;27.31;29.97;100597.91;5098989;27;45444;-72
2023/04/21 11:15:09;;;;;;;;;5.00;5.00;;;;;27.32;30.62;100591.41;5114022;27;45636;-72
2023/04/21 11:17:38;;;;;;;;;5.67;5.67;;;;;27.38;30.43;100592.50;5111637;27;45677;-72
2023/04/21 11:20:05;;;;;;;;;4.67;4.67;;;;;27.41;30.39;100592.94;5108120;27;46341;-72
2023/04/21 11:22:31;;;;;;;;;4.67;4.67;;;;;27.43;30.71;100596.28;5107594;27;45539;-72
2023/04/21 11:24:57;;;;;;;;;6.00;5.67;;;;;27.45;30.34;100591.50;5111237;27;45536;-71
2023/04/21 11:27:26;;;;;;;;;8.00;5.00;;;;;27.48;30.02;100588.38;5113102;27;45491;-71
2023/04/21 11:29:51;;;;;;;;;5.67;5.67;;;;;27.49;29.98;100587.34;5109393;27;45529;-71
2023/04/21 11:32:17;;;;;;;;;6.33;5.33;;;;;27.52;29.87;100586.09;5100250;27;45687;-71
2023/04/21 11:34:43;;;;;;;;;4.33;4.33;;;;;27.55;30.50;100587.59;5090372;27;45611;-72
2023/04/21 11:37:15;;;;;;;;;6.00;5.00;;;;;27.60;30.05;100585.13;5104299;27;46414;-72
2023/04/21 11:39:41;;;;;;;;;7.67;7.00;;;;;27.67;29.71;100593.34;5105219;27;46101;-73
2023/04/21 11:42:06;;;;;;;;;10.33;10.33;;;;;27.71;30.28;100586.47;5106401;27;45888;-71
2023/04/21 11:44:37;;;;;;;;;10.00;9.67;;;;;27.77;30.16;100595.69;5100542;27;47115;-72
2023/04/21 11:47:18;;;;;;;;;12.33;12.00;;;;;27.79;30.02;100589.00;5106475;27;46405;-72
2023/04/21 11:49:57;;;;;;;;;8.33;7.67;;;;;27.77;29.23;100585.66;5105672;27;47083;-71
2023/04/21 11:52:27;;;;;;;;;9.33;9.00;;;;;27.75;29.66;100585.00;5109614;27;45401;-72
2023/04/21 11:54:59;;;;;;;;;7.33;7.33;;;;;27.67;29.28;100577.00;5090591;27;45884;-72
2023/04/21 11:57:26;;;;;;;;;9.33;8.33;;;;;27.64;29.38;100583.69;5107954;27;45695;-72
2023/04/21 11:59:51;;;;;;;;;11.67;11.67;;;;;27.62;29.85;100585.75;5100605;27;45685;-72
2023/04/21 12:02:23;;;;;;;;;12.67;9.33;;;;;27.54;29.37;100575.81;5106241;27;45856;-71
2023/04/21 12:05:08;;;;;;;;;10.00;10.00;;;;;27.54;29.64;100584.00;5099808;27;45379;-72
2023/04/21 12:07:36;;;;;;;;;8.33;8.00;;;;;27.48;29.59;100582.09;5106725;27;45883;-72
2023/04/21 12:10:08;;;;;;;;;10.00;8.67;;;;;27.48;29.53;100585.66;5103298;27;45836;-71
2023/04/21 12:12:36;;;;;;;;;7.67;7.67;;;;;27.47;29.81;100585.84;5104634;27;45399;-72
2023/04/21 12:15:03;;;;;;;;;10.33;9.00;;;;;27.44;29.81;100583.50;5105658;27;45642;-72
2023/04/21 12:17:36;;;;;;;;;6.00;6.00;;;;;27.43;29.62;100584.56;5110271;27;46005;-72
2023/04/21 12:20:05;;;;;;;;;11.00;11.00;;;;;27.40;29.27;100582.22;5104468;27;46484;-72
2023/04/21 12:22:30;;;;;;;;;9.00;7.33;;;;;27.38;29.37;100582.41;5096812;27;47721;-72
2023/04/21 12:24:56;;;;;;;;;7.67;7.67;;;;;27.36;29.74;100579.06;5083292;27;52992;-72
2023/04/21 12:27:25;;;;;;;;;8.67;7.67;;;;;27.30;29.78;100575.25;5109585;27;45843;-71
2023/04/21 12:29:50;;;;;;;;;12.00;9.00;;;;;27.34;29.32;100583.88;5094319;27;48145;-71
2023/04/21 12:32:16;;;;;;;;;7.67;7.67;;;;;27.32;29.31;100586.81;5098915;27;53046;-72
2023/04/21 12:34:42;;;;;;;;;9.67;9.67;;;;;27.26;29.35;100584.84;5105146;27;45573;-72
2023/04/21 12:37:07;;;;;;;;;11.33;8.00;;;;;27.32;29.44;100585.94;5112794;27;45727;-72
2023/04/21 12:39:33;;;;;;;;;11.00;10.67;;;;;27.33;29.73;100579.44;5109480;27;45970;-72
2023/04/21 12:41:58;;;;;;;;;12.00;12.00;;;;;27.40;29.17;100584.94;5104069;27;45655;-72
2023/04/21 12:44:24;;;;;;;;;12.00;12.00;;;;;27.41;29.35;100587.47;5106700;27;46981;-72
2023/04/21 12:46:50;;;;;;;;;13.00;13.00;;;;;27.38;29.29;100579.69;5108233;27;45468;-72
2023/04/21 12:49:16;;;;;;;;;15.00;13.00;;;;;27.37;28.85;100578.00;5106929;27;45553;-72
2023/04/21 12:51:43;;;;;;;;;12.67;12.33;;;;;27.39;29.04;100581.41;5113670;27;46161;-72
2023/04/21 12:54:09;;;;;;;;;17.67;16.33;;;;;27.39;29.65;100580.53;5097046;27;45470;-72
2023/04/21 12:56:35;;;;;;;;;13.00;11.67;;;;;27.35;28.91;100571.94;5115689;27;45560;-72
2023/04/21 12:59:00;;;;;;;;;13.00;12.33;;;;;27.43;29.03;100577.22;5103327;27;46844;-72
2023/04/21 13:01:25;;;;;;;;;10.67;10.67;;;;;27.47;29.48;100577.69;5112658;27;45516;-72
2023/04/21 13:03:51;;;;;;;;;11.00;11.00;;;;;27.53;29.07;100581.47;5116385;27;45973;-72
2023/04/21 13:06:17;;;;;;;;;11.00;11.00;;;;;27.57;29.10;100575.44;5115340;27;45429;-72
2023/04/21 13:08:42;;;;;;;;;11.67;10.00;;;;;27.52;28.79;100569.75;5108431;27;45692;-72
2023/04/21 13:11:07;;;;;;;;;12.33;12.00;;;;;27.65;29.41;100579.06;5109111;27;45542;-72
2023/04/21 13:13:33;;;;;;;;;9.33;9.33;;;;;27.70;28.85;100584.75;5108829;27;45504;-73
2023/04/21 13:15:58;;;;;;;;;10.67;10.67;;;;;27.78;29.15;100579.16;5101572;27;45406;-72
2023/04/21 16:30:54;;;;;;;;;14.00;9.50;;;;;19.02;36.20;100417.22;5092370;27;46183;-76
2023/04/21 16:33:19;;;;;;;;;7.25;7.00;;;;;19.58;37.20;100417.28;5069503;27;45652;-75
2023/04/21 16:35:44;;;;;;;;;9.00;7.00;;;;;20.41;36.91;100404.66;5068444;27;45722;-74
2023/04/21 16:38:10;;;;;;;;;8.00;7.75;;;;;21.33;37.08;100410.66;5081810;27;45547;-75
2023/04/21 16:40:35;;;;;;;;;9.00;8.75;;;;;22.18;36.47;100408.91;5084071;27;45771;-75
2023/04/21 16:43:01;;;;;;;;;8.50;7.00;;;;;22.94;36.44;100401.59;5090183;27;46094;-75
2023/04/21 16:45:27;;;;;;;;;6.25;6.25;;;;;23.57;36.35;100407.16;5087887;27;47279;-74
2023/04/21 16:47:52;;;;;;;;;8.75;8.75;;;;;24.15;35.62;100408.72;5086252;27;45427;-73
2023/04/21 16:50:18;;;;;;;;;8.00;6.00;;;;;24.60;35.33;100408.84;5079443;27;53619;-73
2023/04/21 16:52:43;;;;;;;;;9.67;7.33;;;;;25.04;35.08;100400.94;5085367;27;45735;-75
2023/04/21 16:55:09;;;;;;;;;7.75;6.75;;;;;25.40;34.45;100405.63;5082694;27;47829;-73
2023/04/21 16:57:34;;;;;;;;;7.50;6.25;;;;;25.70;34.49;100407.50;5081282;27;45816;-73
2023/04/21 17:00:00;;;;;;;;;8.75;7.75;;;;;25.96;34.08;100406.09;5082112;27;45879;-74
2023/04/21 17:02:25;;;;;;;;;8.00;6.33;;;;;26.16;33.94;100409.00;5086806;27;45663;-73
2023/04/21 17:04:50;;;;;;;;;7.00;7.00;;;;;26.34;33.83;100411.28;5095461;27;45550;-74
2023/04/21 17:07:16;;;;;;;;;9.33;7.00;;;;;26.48;33.37;100406.78;5090138;27;45909;-74
2023/04/21 17:09:41;;;;;;;;;7.33;6.00;;;;;26.59;33.23;100408.16;5091489;27;46097;-74
2023/04/21 17:12:07;;;;;;;;;7.00;7.00;;;;;26.66;33.08;100403.63;5093053;27;46896;-73
2023/04/21 17:14:33;;;;;;;;;5.00;5.00;;;;;26.73;33.01;100408.25;5092988;27;45836;-75
2023/04/21 17:16:58;;;;;;;;;10.33;7.00;;;;;26.79;32.56;100405.59;5085263;27;45525;-76
2023/04/21 17:19:23;;;;;;;;;9.00;7.00;;;;;26.86;32.29;100407.50;5085136;27;46199;-76
2023/04/21 17:21:49;;;;;;;;;11.67;8.67;;;;;26.87;32.44;100412.75;5084154;27;45764;-76
2023/04/21 17:24:14;;;;;;;;;7.00;7.00;;;;;26.91;31.76;100410.47;5080127;27;45893;-75
2023/04/21 17:26:40;;;;;;;;;6.00;6.00;;;;;26.91;31.83;100403.16;5088406;27;45573;-74
2023/04/21 17:29:07;;;;;;;;;6.67;6.67;;;;;26.94;32.06;100410.09;5084473;27;46013;-74
2023/04/21 17:31:32;;;;;;;;;11.00;9.67;;;;;26.99;32.05;100401.31;5083725;27;45594;-75
2023/04/21 17:33:58;;;;;;;;;10.33;8.00;;;;;27.05;31.88;100406.00;5084201;27;45498;-73
2023/04/21 17:36:24;;;;;;;;;12.00;10.00;;;;;27.08;31.82;100397.41;5083386;27;45341;-72
2023/04/21 17:38:49;;;;;;;;;11.33;8.00;;;;;27.08;31.78;100390.06;5084419;27;46169;-72
2023/04/21 17:41:15;;;;;;;;;10.00;10.00;;;;;27.10;30.99;100400.78;5077290;27;45478;-72
2023/04/21 17:43:40;;;;;;;;;12.00;10.00;;;;;27.11;31.57;100397.00;5073946;27;45430;-71
2023/04/21 17:46:07;;;;;;;;;8.33;8.33;;;;;27.15;30.97;100395.56;5074675;27;45412;-72
2023/04/21 17:48:32;;;;;;;;;8.33;8.33;;;;;27.21;30.60;100396.63;5074083;27;45612;-72
2023/04/21 17:50:58;;;;;;;;;11.00;8.33;;;;;27.23;31.40;100394.56;5074951;27;45391;-73
2023/04/21 17:53:23;;;;;;;;;9.33;8.67;;;;;27.25;30.41;100395.19;5071858;28;45509;-72
2023/04/21 17:55:49;;;;;;;;;5.00;5.00;;;;;27.26;30.95;100396.84;5071047;27;45374;-72
2023/04/21 17:58:15;;;;;;;;;11.00;8.33;;;;;27.26;30.83;100388.69;5071191;27;46141;-73
2023/04/21 18:00:40;;;;;;;;;4.33;4.33;;;;;27.29;30.69;100387.44;5072049;27;45504;-71
2023/04/21 18:03:06;;;;;;;;;8.00;6.00;;;;;27.33;30.28;100386.00;5073711;27;45710;-73
2023/04/21 18:05:31;;;;;;;;;6.00;6.00;;;;;27.37;30.73;100384.53;5064392;27;45744;-71
2023/04/21 18:07:57;;;;;;;;;6.67;5.33;;;;;27.35;30.65;100386.66;5062130;27;45491;-70
2023/04/21 18:10:22;;;;;;;;;8.00;8.00;;;;;27.38;30.03;100394.41;5072321;27;45485;-72
2023/04/21 18:12:48;;;;;;;;;9.33;7.00;;;;;27.38;30.46;100399.03;5073888;27;45384;-71
2023/04/21 18:15:13;;;;;;;;;4.33;4.33;;;;;27.35;30.28;100389.38;5072083;27;45765;-71
2023/04/21 18:17:38;;;;;;;;;3.67;3.67;;;;;27.36;30.13;100396.50;5073658;27;55904;-72
2023/04/21 18:20:05;;;;;;;;;7.00;5.00;;;;;27.37;30.58;100392.72;5072392;27;45445;-71
2023/04/21 18:22:31;;;;;;;;;5.33;5.33;;;;;27.40;30.33;100394.19;5067271;27;45517;-71
2023/04/21 18:24:56;;;;;;;;;6.67;5.33;;;;;27.40;30.16;100396.91;5071121;27;45645;-74
2023/04/21 18:27:22;;;;;;;;;12.00;8.67;;;;;27.39;29.66;100392.53;5068572;27;45922;-72
2023/04/21 18:29:48;;;;;;;;;8.67;7.67;;;;;27.35;30.38;100403.81;5071240;27;45555;-72
2023/04/21 18:32:14;;;;;;;;;9.00;7.33;;;;;27.34;29.86;100398.59;5069495;27;45766;-72
2023/04/21 18:34:40;;;;;;;;;6.00;5.33;;;;;27.36;29.77;100410.97;5064938;28;45703;-72
2023/04/21 18:37:05;;;;;;;;;3.33;3.33;;;;;27.37;29.59;100414.53;5073824;27;45534;-72
2023/04/21 18:39:30;;;;;;;;;5.67;5.67;;;;;27.38;29.58;100404.47;5073637;28;45386;-69
2023/04/21 18:41:56;;;;;;;;;7.67;5.33;;;;;27.37;29.71;100403.63;5072923;28;45399;-72
2023/04/21 18:44:22;;;;;;;;;7.67;6.33;;;;;27.38;29.82;100404.47;5073806;27;45953;-71
2023/04/21 18:46:47;;;;;;;;;9.00;8.00;;;;;27.38;29.79;100408.00;5070269;27;47328;-73
2023/04/21 18:49:12;;;;;;;;;7.67;7.00;;;;;27.40;29.97;100405.09;5073816;27;45470;-70
2023/04/21 18:51:38;;;;;;;;;6.67;6.00;;;;;27.41;29.75;100404.91;5071291;27;45522;-71
2023/04/21 18:54:04;;;;;;;;;7.00;7.00;;;;;27.40;29.83;100400.50;5066493;27;45570;-73
2023/04/21 18:56:31;;;;;;;;;5.00;5.00;;;;;27.40;29.95;100405.94;5071063;27;46261;-71
2023/04/21 18:58:57;;;;;;;;;7.00;5.00;;;;;27.39;29.50;100403.41;5073040;27;45479;-72
2023/04/21 19:01:22;;;;;;;;;5.00;5.00;;;;;27.42;29.95;100403.84;5066962;27;45659;-73